Nir — 4XLF — position and weather

sailwx.info

Track history (hours):
 
Tides and Currents Weather Stations Pressure Air Temp Water Temp Dewpoint Dewpoint Depression Visibility Wind Speed Wind Dir Waves Ship Positions

Nir

Last reported at 2018-Aug-14 06:30 UTC. Time now 2018-Aug-14 06:58 UTC.
Position N 32°37' E 034°43'.

Length 69 m; draft 4.2 m.

Type: Tug. MMSI: 428000016.

Date/timePositionNaut miles runAvg speedWind from/ knotsBaromVisibWave heightAir tempDewpointWater temp
2018-Aug-14 06:30N 32°37' E 034°43'5 9.1
2018-Aug-14 06:00N 32°33' E 034°46'4 7.6
2018-Aug-14 05:30N 32°30' E 034°49'3 5.7
2018-Aug-14 05:00N 32°30' E 034°46'2 5.0
2018-Aug-14 04:30N 32°29' E 034°43'5 9.0
2018-Aug-14 03:59N 32°28' E 034°37'5 9.8
2018-Aug-14 03:27N 32°23' E 034°39'510.1
2018-Aug-14 02:58N 32°18' E 034°40'4 0.4
2018-Aug-13 16:48N 32°16' E 034°37'2 6.6
2018-Aug-13 16:28N 32°17' E 034°39'3 6.5
2018-Aug-13 16:00N 32°18' E 034°43'3 6.0
2018-Aug-13 15:30N 32°19' E 034°46'3 6.5
2018-Aug-13 15:00N 32°22' E 034°45'3 6.9
2018-Aug-13 14:30N 32°26' E 034°43'3 6.8
2018-Aug-13 14:00N 32°29' E 034°42'3 6.9
2018-Aug-13 13:30N 32°32' E 034°41'3 6.4
2018-Aug-13 13:00N 32°33' E 034°44'3 6.7
2018-Aug-13 12:30N 32°35' E 034°48'4 7.3
2018-Aug-13 12:00N 32°37' E 034°51'3 5.5
2018-Aug-13 11:29N 32°40' E 034°50'2 4.4
2018-Aug-13 10:58N 32°42' E 034°50'2 4.8
2018-Aug-13 10:30N 32°44' E 034°49'2 4.0
2018-Aug-13 09:59N 32°45' E 034°51'2 5.1
2018-Aug-13 09:30N 32°46' E 034°49'3 7.1
2018-Aug-13 09:00N 32°47' E 034°45'1 2.4
2018-Aug-13 08:30N 32°48' E 034°45'4 7.3
2018-Aug-13 08:00N 32°48' E 034°50'2 4.8
2018-Aug-13 07:30N 32°49' E 034°52'2 4.5
2018-Aug-13 07:00N 32°51' E 034°53'4 8.1
2018-Aug-13 06:30N 32°52' E 034°57'2 2.5
2018-Aug-13 05:36N 32°51' E 034°60'1 8.0
2018-Aug-13 05:30N 32°52' E 034°59'4 8.4
2018-Aug-13 05:00N 32°54' E 034°54'3 5.5
2018-Aug-13 04:29N 32°53' E 034°51'2 4.9
2018-Aug-13 04:00N 32°53' E 034°48'4 8.3
2018-Aug-13 03:30N 32°49' E 034°49'4 7.6
2018-Aug-13 02:59N 32°45' E 034°50'3 7.4
2018-Aug-13 02:31N 32°41' E 034°50'5 9.5
2018-Aug-13 02:00N 32°37' E 034°50'5 9.6
2018-Aug-13 01:30N 32°32' E 034°48'5 9.7
2018-Aug-13 01:01N 32°28' E 034°44'4 7.0
2018-Aug-13 00:30N 32°25' E 034°45'4 7.1
2018-Aug-13 00:00N 32°22' E 034°46'5 9.6
2018-Aug-12 23:30N 32°17' E 034°44'2 0.2
2018-Aug-12 15:05N 32°16' E 034°45'1 8.2
2018-Aug-12 14:58N 32°17' E 034°45'4 8.2
2018-Aug-12 14:30N 32°21' E 034°46'4 8.0
2018-Aug-12 14:00N 32°24' E 034°48'4 7.9
2018-Aug-12 13:30N 32°28' E 034°49'4 7.8
2018-Aug-12 13:00N 32°32' E 034°50'4 7.8
2018-Aug-12 12:31N 32°35' E 034°51'3 6.8
2018-Aug-12 12:00N 32°38' E 034°48'4 7.3
2018-Aug-12 11:30N 32°41' E 034°46'4 8.1
2018-Aug-12 11:00N 32°45' E 034°45'4 7.4
2018-Aug-12 10:31N 32°48' E 034°47'4 7.6
2018-Aug-12 10:00N 32°50' E 034°51'  
Track history (hours):
 
Tides and Currents Weather Stations Pressure Air Temp Water Temp Dewpoint Dewpoint Depression Visibility Wind Speed Wind Dir Waves Ship Positions

Nir

Last reported at 2018-Aug-14 06:30 UTC. Time now 2018-Aug-14 06:58 UTC.
Position N 32°37' E 034°43'.

Length 69 m; draft 4.2 m.

Type: Tug. MMSI: 428000016.

Date/timePositionNaut miles runAvg speedWind from/ knotsBaromVisibWave heightAir tempDewpointWater temp
2018-Aug-14 06:30N 32°37' E 034°43'5 9.1
2018-Aug-14 06:00N 32°33' E 034°46'4 7.6
2018-Aug-14 05:30N 32°30' E 034°49'3 5.7
2018-Aug-14 05:00N 32°30' E 034°46'2 5.0
2018-Aug-14 04:30N 32°29' E 034°43'5 9.0
2018-Aug-14 03:59N 32°28' E 034°37'5 9.8
2018-Aug-14 03:27N 32°23' E 034°39'510.1
2018-Aug-14 02:58N 32°18' E 034°40'4 0.4
2018-Aug-13 16:48N 32°16' E 034°37'2 6.6
2018-Aug-13 16:28N 32°17' E 034°39'3 6.5
2018-Aug-13 16:00N 32°18' E 034°43'3 6.0
2018-Aug-13 15:30N 32°19' E 034°46'3 6.5
2018-Aug-13 15:00N 32°22' E 034°45'3 6.9
2018-Aug-13 14:30N 32°26' E 034°43'3 6.8
2018-Aug-13 14:00N 32°29' E 034°42'3 6.9
2018-Aug-13 13:30N 32°32' E 034°41'3 6.4
2018-Aug-13 13:00N 32°33' E 034°44'3 6.7
2018-Aug-13 12:30N 32°35' E 034°48'4 7.3
2018-Aug-13 12:00N 32°37' E 034°51'3 5.5
2018-Aug-13 11:29N 32°40' E 034°50'2 4.4
2018-Aug-13 10:58N 32°42' E 034°50'2 4.8
2018-Aug-13 10:30N 32°44' E 034°49'2 4.0
2018-Aug-13 09:59N 32°45' E 034°51'2 5.1
2018-Aug-13 09:30N 32°46' E 034°49'3 7.1
2018-Aug-13 09:00N 32°47' E 034°45'1 2.4
2018-Aug-13 08:30N 32°48' E 034°45'4 7.3
2018-Aug-13 08:00N 32°48' E 034°50'2 4.8
2018-Aug-13 07:30N 32°49' E 034°52'2 4.5
2018-Aug-13 07:00N 32°51' E 034°53'4 8.1
2018-Aug-13 06:30N 32°52' E 034°57'2 2.5
2018-Aug-13 05:36N 32°51' E 034°60'1 8.0
2018-Aug-13 05:30N 32°52' E 034°59'4 8.4
2018-Aug-13 05:00N 32°54' E 034°54'3 5.5
2018-Aug-13 04:29N 32°53' E 034°51'2 4.9
2018-Aug-13 04:00N 32°53' E 034°48'4 8.3
2018-Aug-13 03:30N 32°49' E 034°49'4 7.6
2018-Aug-13 02:59N 32°45' E 034°50'3 7.4
2018-Aug-13 02:31N 32°41' E 034°50'5 9.5
2018-Aug-13 02:00N 32°37' E 034°50'5 9.6
2018-Aug-13 01:30N 32°32' E 034°48'5 9.7
2018-Aug-13 01:01N 32°28' E 034°44'4 7.0
2018-Aug-13 00:30N 32°25' E 034°45'4 7.1
2018-Aug-13 00:00N 32°22' E 034°46'5 9.6
2018-Aug-12 23:30N 32°17' E 034°44'2 0.2
2018-Aug-12 15:05N 32°16' E 034°45'1 8.2
2018-Aug-12 14:58N 32°17' E 034°45'4 8.2
2018-Aug-12 14:30N 32°21' E 034°46'4 8.0
2018-Aug-12 14:00N 32°24' E 034°48'4 7.9
2018-Aug-12 13:30N 32°28' E 034°49'4 7.8
2018-Aug-12 13:00N 32°32' E 034°50'4 7.8
2018-Aug-12 12:31N 32°35' E 034°51'3 6.8
2018-Aug-12 12:00N 32°38' E 034°48'4 7.3
2018-Aug-12 11:30N 32°41' E 034°46'4 8.1
2018-Aug-12 11:00N 32°45' E 034°45'4 7.4
2018-Aug-12 10:31N 32°48' E 034°47'4 7.6
2018-Aug-12 10:00N 32°50' E 034°51'  

Dump ship's entire track history